createdAt,value
2018-04-11T00:00:22.964Z,77.22
2018-04-11T00:02:51.265Z,77.38
2018-04-11T00:05:19.534Z,77.55
2018-04-11T00:07:47.862Z,77.78
2018-04-11T00:10:16.122Z,77.66
2018-04-11T00:12:44.401Z,77.72
2018-04-11T00:15:12.677Z,77.67
2018-04-11T00:17:40.964Z,77.60
2018-04-11T00:20:09.490Z,76.58
2018-04-11T00:22:37.750Z,76.71
2018-04-11T00:25:06.057Z,77.10
2018-04-11T00:27:34.318Z,77.01
2018-04-11T00:30:02.613Z,77.05
2018-04-11T00:32:30.881Z,77.20
2018-04-11T00:34:59.185Z,76.79
2018-04-11T00:37:27.443Z,76.77
2018-04-11T00:39:55.753Z,76.91
2018-04-11T00:42:24.016Z,76.86
2018-04-11T00:44:52.294Z,77.23
2018-04-11T00:47:20.587Z,76.72
2018-04-11T00:49:49.145Z,76.13
2018-04-11T00:52:17.406Z,75.89
2018-04-11T00:54:45.725Z,75.19
2018-04-11T00:57:13.984Z,74.56
2018-04-11T00:59:42.295Z,74.85
2018-04-11T01:02:10.567Z,74.80
2018-04-11T01:04:38.908Z,75.31
2018-04-11T01:07:07.154Z,75.37
2018-04-11T01:09:35.458Z,75.20
2018-04-11T01:12:03.722Z,76.04
2018-04-11T01:14:31.997Z,76.63
2018-04-11T01:17:00.290Z,76.68
2018-04-11T01:19:28.581Z,76.84
2018-04-11T01:21:56.873Z,76.86
2018-04-11T01:24:25.130Z,76.67
2018-04-11T01:26:53.423Z,75.78
2018-04-11T01:29:21.707Z,76.11
2018-04-11T01:31:50.015Z,76.18
2018-04-11T01:34:18.298Z,75.94
2018-04-11T01:36:46.587Z,76.04
2018-04-11T01:39:14.843Z,74.53
2018-04-11T01:41:43.127Z,74.00
2018-04-11T01:44:11.390Z,74.11
2018-04-11T01:46:39.671Z,74.25
2018-04-11T01:49:07.945Z,74.19
2018-04-11T01:51:36.227Z,74.27
2018-04-11T01:54:05.611Z,74.32
2018-04-11T01:56:33.962Z,74.64
2018-04-11T01:59:02.218Z,74.71
2018-04-11T02:01:30.532Z,74.16
2018-04-11T02:03:58.830Z,74.30
2018-04-11T02:06:27.110Z,73.94
2018-04-11T02:08:55.408Z,74.24
2018-04-11T02:11:23.657Z,74.35
2018-04-11T02:13:51.936Z,73.88
2018-04-11T02:16:20.204Z,73.39
2018-04-11T02:18:48.499Z,73.85
2018-04-11T02:21:16.829Z,73.93
2018-04-11T02:23:45.137Z,74.03
2018-04-11T02:26:13.382Z,73.95
2018-04-11T02:28:41.694Z,75.34
2018-04-11T02:31:09.977Z,77.20
2018-04-11T02:33:38.266Z,78.25
2018-04-11T02:36:06.595Z,78.86
2018-04-11T02:38:34.909Z,79.14
2018-04-11T02:41:03.151Z,79.78
2018-04-11T02:43:31.445Z,80.01
2018-04-11T02:45:59.712Z,80.32
2018-04-11T02:48:28.043Z,80.32
2018-04-11T02:50:56.309Z,80.21
2018-04-11T02:53:24.598Z,80.32
2018-04-11T02:55:52.852Z,79.99
2018-04-11T02:58:21.172Z,79.82
2018-04-11T03:00:49.482Z,78.78
2018-04-11T03:03:17.747Z,78.04
2018-04-11T03:05:46.056Z,78.82
2018-04-11T03:08:14.349Z,80.28
2018-04-11T03:10:42.643Z,81.47
2018-04-11T03:13:10.927Z,82.39
2018-04-11T03:15:39.205Z,83.02
2018-04-11T03:18:07.474Z,83.55
2018-04-11T03:20:36.488Z,84.07
2018-04-11T03:23:04.808Z,84.54
2018-04-11T03:25:33.093Z,84.61
2018-04-11T03:28:01.357Z,84.70
2018-04-11T03:30:29.687Z,84.90
2018-04-11T03:32:58.510Z,85.36
2018-04-11T03:35:26.845Z,85.51
2018-04-11T03:37:55.118Z,85.82
2018-04-11T03:40:23.600Z,85.76
2018-04-11T03:42:52.213Z,85.77
2018-04-11T03:45:20.538Z,85.91
2018-04-11T03:47:48.818Z,85.72
2018-04-11T03:50:17.096Z,86.20
2018-04-11T03:52:45.388Z,85.94
2018-04-11T03:55:13.670Z,86.03
2018-04-11T03:57:41.975Z,86.06
2018-04-11T04:00:10.245Z,85.76
2018-04-11T04:02:38.551Z,85.63
2018-04-11T04:05:06.825Z,85.03
2018-04-11T04:07:35.179Z,84.41
2018-04-11T04:10:03.414Z,84.51
2018-04-11T04:12:31.718Z,84.00
2018-04-11T04:18:12.903Z,81.09
2018-04-11T04:20:41.182Z,80.86
2018-04-11T04:23:09.474Z,80.17
2018-04-11T04:25:37.738Z,80.23
2018-04-11T04:28:06.053Z,80.51
2018-04-11T04:30:34.330Z,80.59
2018-04-11T04:33:02.645Z,80.89
2018-04-11T04:35:30.936Z,80.81
2018-04-11T04:37:59.221Z,80.61
2018-04-11T04:40:27.509Z,80.90
2018-04-11T04:42:55.801Z,80.61
2018-04-11T04:45:24.214Z,80.46
2018-04-11T04:47:52.812Z,80.92
2018-04-11T04:50:21.092Z,81.15
2018-04-11T04:52:49.371Z,81.64
2018-04-11T04:55:17.658Z,82.05
2018-04-11T04:57:45.930Z,81.29
2018-04-11T05:00:14.230Z,81.48
2018-04-11T05:02:42.588Z,81.38
2018-04-11T05:05:11.627Z,80.51
2018-04-11T05:07:39.915Z,80.28
2018-04-11T05:10:08.248Z,80.34
2018-04-11T05:12:36.510Z,80.01
2018-04-11T05:15:04.863Z,80.41
2018-04-11T05:17:33.142Z,80.44
2018-04-11T05:20:01.476Z,80.08
2018-04-11T05:22:29.738Z,80.13
2018-04-11T05:24:58.058Z,79.74
2018-04-11T05:27:26.333Z,79.61
2018-04-11T05:29:54.688Z,79.46
2018-04-11T05:32:26.259Z,78.33
2018-04-11T05:34:54.587Z,78.20
2018-04-11T05:37:22.863Z,78.00
2018-04-11T05:39:51.145Z,78.62
2018-04-11T05:42:19.435Z,78.28
2018-04-11T05:44:47.714Z,77.93
2018-04-11T05:47:15.985Z,78.19
2018-04-11T05:49:44.253Z,77.84
2018-04-11T05:52:12.539Z,77.38
2018-04-11T05:54:40.791Z,77.40
2018-04-11T05:57:09.155Z,77.98
2018-04-11T05:59:37.420Z,77.47
2018-04-11T06:02:05.715Z,76.89
2018-04-11T06:04:33.969Z,77.11
2018-04-11T06:07:02.554Z,76.93
2018-04-11T06:09:30.783Z,77.27
2018-04-11T06:11:59.219Z,77.20
2018-04-11T06:14:27.530Z,77.49
2018-04-11T06:16:55.856Z,77.18
2018-04-11T06:19:24.111Z,76.87
2018-04-11T06:21:52.495Z,77.15
2018-04-11T06:24:20.769Z,76.75
2018-04-11T06:26:49.166Z,76.53
2018-04-11T06:29:17.414Z,76.47
2018-04-11T06:31:45.742Z,76.44
2018-04-11T06:34:14.016Z,76.00
2018-04-11T06:36:42.327Z,75.88
2018-04-11T06:39:10.612Z,76.08
2018-04-11T06:41:38.897Z,76.05
2018-04-11T06:44:07.174Z,75.95
2018-04-11T06:46:35.433Z,75.66
2018-04-11T06:49:03.741Z,75.71
2018-04-11T06:51:31.995Z,75.40
2018-04-11T06:54:00.294Z,75.92
2018-04-11T06:56:28.632Z,76.66
2018-04-11T06:58:56.995Z,77.80
2018-04-11T07:01:26.006Z,78.66
2018-04-11T07:03:54.341Z,78.65
2018-04-11T07:06:22.595Z,77.39
2018-04-11T07:08:50.938Z,77.37
2018-04-11T07:11:19.243Z,77.91
2018-04-11T07:13:47.610Z,77.46
2018-04-11T07:16:15.906Z,77.54
2018-04-11T07:18:44.171Z,77.80
2018-04-11T07:21:12.445Z,76.75
2018-04-11T07:23:40.786Z,75.81
2018-04-11T07:26:09.063Z,74.42
2018-04-11T07:28:37.352Z,73.56
2018-04-11T07:31:05.654Z,73.51
2018-04-11T07:33:33.927Z,73.70
2018-04-11T07:36:02.270Z,72.75
2018-04-11T07:38:30.546Z,73.03
2018-04-11T07:40:58.844Z,73.82
2018-04-11T07:43:27.170Z,73.15
2018-04-11T07:45:55.808Z,73.29
2018-04-11T07:48:24.099Z,72.14
2018-04-11T07:50:52.382Z,71.25
2018-04-11T07:53:20.713Z,70.54
2018-04-11T07:55:49.021Z,69.40
2018-04-11T07:58:17.693Z,68.95
2018-04-11T08:00:45.981Z,68.36
2018-04-11T08:03:14.332Z,67.61
2018-04-11T08:05:42.561Z,68.42
2018-04-11T08:08:10.898Z,69.17
2018-04-11T08:10:39.189Z,68.24
2018-04-11T08:13:07.522Z,67.45
2018-04-11T08:15:35.831Z,66.54
2018-04-11T08:18:04.913Z,65.54
2018-04-11T08:20:33.248Z,66.33
2018-04-11T08:23:01.562Z,66.58
2018-04-11T08:25:29.856Z,65.32
2018-04-11T08:27:59.447Z,64.62
2018-04-11T08:30:27.742Z,65.17
2018-04-11T08:32:56.109Z,64.87
2018-04-11T08:35:24.421Z,62.70
2018-04-11T08:37:52.706Z,63.06
2018-04-11T08:40:21.034Z,63.33
2018-04-11T08:42:49.351Z,63.02
2018-04-11T08:45:17.687Z,62.68
2018-04-11T08:47:45.990Z,62.36
2018-04-11T08:50:14.349Z,61.52
2018-04-11T08:52:42.655Z,60.62
2018-04-11T08:55:10.934Z,59.22
2018-04-11T08:57:39.266Z,59.35
2018-04-11T09:00:07.627Z,56.26
2018-04-11T09:02:35.887Z,55.40
2018-04-11T09:05:04.218Z,51.67
2018-04-11T09:07:32.613Z,54.48
2018-04-11T09:10:00.908Z,52.59
2018-04-11T09:12:29.226Z,50.74
2018-04-11T09:14:57.522Z,52.01
2018-04-11T09:17:25.955Z,53.10
2018-04-11T09:19:54.231Z,51.69
2018-04-11T09:22:22.514Z,51.61
2018-04-11T09:24:50.837Z,51.53
2018-04-11T09:27:19.662Z,51.82
2018-04-11T09:29:47.951Z,52.17
2018-04-11T09:32:16.261Z,51.71
2018-04-11T09:34:45.374Z,52.27
2018-04-11T09:37:13.672Z,52.16
2018-04-11T09:39:41.969Z,50.86
2018-04-11T09:42:10.240Z,48.71
2018-04-11T09:44:38.578Z,48.42
2018-04-11T09:47:06.865Z,48.54
2018-04-11T09:49:35.203Z,49.55
2018-04-11T09:52:03.465Z,50.91
2018-04-11T09:54:31.756Z,49.06
2018-04-11T09:57:00.046Z,49.28
2018-04-11T09:59:28.343Z,49.26
2018-04-11T10:01:56.642Z,48.34
2018-04-11T10:04:25.275Z,48.32
2018-04-11T10:06:53.603Z,47.83
2018-04-11T10:09:21.881Z,47.01
2018-04-11T10:11:50.195Z,46.72
2018-04-11T10:14:18.486Z,46.32
2018-04-11T10:16:46.810Z,46.91
2018-04-11T10:19:15.088Z,46.36
2018-04-11T10:21:43.420Z,46.27
2018-04-11T10:24:11.769Z,46.27
2018-04-11T10:26:40.046Z,45.42
2018-04-11T10:29:08.343Z,45.25
2018-04-11T10:31:37.239Z,45.09
2018-04-11T10:34:05.595Z,44.89
2018-04-11T10:36:33.881Z,45.10
2018-04-11T10:39:02.245Z,43.97
2018-04-11T10:41:30.535Z,44.23
2018-04-11T10:43:58.832Z,43.59
2018-04-11T10:46:27.768Z,41.88
2018-04-11T10:48:56.101Z,42.23
2018-04-11T10:51:24.355Z,41.46
2018-04-11T10:53:52.708Z,41.36
2018-04-11T10:56:21.017Z,41.44
2018-04-11T10:58:49.341Z,41.62
2018-04-11T11:01:17.574Z,40.88
2018-04-11T11:03:45.996Z,41.75
2018-04-11T11:06:14.242Z,41.78
2018-04-11T11:08:42.594Z,41.08
2018-04-11T11:11:10.877Z,40.98
2018-04-11T11:13:39.160Z,41.07
2018-04-11T11:16:07.532Z,39.95
2018-04-11T11:18:35.819Z,39.91
2018-04-11T11:21:04.142Z,40.18
2018-04-11T11:23:32.465Z,40.42
2018-04-11T11:26:00.864Z,39.57
2018-04-11T11:28:29.228Z,40.10
2018-04-11T11:30:57.478Z,39.10
2018-04-11T11:33:25.828Z,38.88
2018-04-11T11:35:54.062Z,38.99
2018-04-11T11:38:23.833Z,38.20
2018-04-11T11:40:52.145Z,37.88
2018-04-11T11:43:20.449Z,37.28
2018-04-11T11:45:48.714Z,37.83
2018-04-11T11:48:17.087Z,37.99
2018-04-11T11:50:45.362Z,38.18
2018-04-11T11:53:13.661Z,38.30
2018-04-11T11:55:41.935Z,37.99
2018-04-11T11:58:10.301Z,38.63
2018-04-11T12:00:38.569Z,37.32
2018-04-11T12:03:07.622Z,37.71
2018-04-11T12:05:35.910Z,36.43
2018-04-11T12:08:05.329Z,35.56
2018-04-11T12:10:33.611Z,34.98
2018-04-11T12:13:01.894Z,35.20
2018-04-11T12:15:30.179Z,34.59
2018-04-11T12:17:58.686Z,36.73
2018-04-11T12:20:26.984Z,37.06
2018-04-11T12:22:55.297Z,35.75
2018-04-11T12:25:24.421Z,36.28
2018-04-11T12:27:52.766Z,36.04
2018-04-11T12:30:22.074Z,35.00
2018-04-11T12:32:50.367Z,35.62
2018-04-11T12:35:18.692Z,36.79
2018-04-11T12:37:47.075Z,36.50
2018-04-11T12:40:15.474Z,36.11
2018-04-11T12:42:43.761Z,36.29
2018-04-11T12:45:12.145Z,35.31
2018-04-11T12:47:40.422Z,34.84
2018-04-11T12:50:08.927Z,34.75
2018-04-11T12:52:37.233Z,35.20
2018-04-11T12:55:05.626Z,36.11
2018-04-11T12:57:35.136Z,36.05
2018-04-11T13:00:03.621Z,37.77
2018-04-11T13:02:33.238Z,38.87
2018-04-11T13:05:03.185Z,38.58
2018-04-11T13:07:33.499Z,37.80
2018-04-11T13:10:01.802Z,36.83
2018-04-11T13:12:30.825Z,36.02
2018-04-11T13:14:59.522Z,35.99
2018-04-11T13:17:29.206Z,34.65
2018-04-11T13:19:57.465Z,34.65
2018-04-11T13:22:25.755Z,35.09
2018-04-11T13:24:54.063Z,34.48
2018-04-11T13:27:22.377Z,34.50
2018-04-11T13:29:50.659Z,33.78
2018-04-11T13:32:18.968Z,33.63
2018-04-11T13:34:47.241Z,32.74
2018-04-11T13:37:15.586Z,31.92
2018-04-11T13:39:43.867Z,31.84
2018-04-11T13:42:12.190Z,32.31
2018-04-11T13:44:40.438Z,32.09
2018-04-11T13:47:08.718Z,33.51
2018-04-11T13:49:37.060Z,32.52
2018-04-11T13:52:05.532Z,31.09
2018-04-11T13:54:33.828Z,31.09
2018-04-11T13:57:02.103Z,31.86
2018-04-11T13:59:30.385Z,33.29
2018-04-11T14:01:58.721Z,32.20
2018-04-11T14:04:27.037Z,31.87
2018-04-11T14:06:55.310Z,31.98
2018-04-11T14:09:23.647Z,31.15
2018-04-11T14:11:51.904Z,31.72
2018-04-11T14:14:20.223Z,30.82
2018-04-11T14:16:48.557Z,31.33
2018-04-11T14:19:17.530Z,31.03
2018-04-11T14:21:45.843Z,31.79
2018-04-11T14:24:14.128Z,31.30
2018-04-11T14:26:42.417Z,31.27
2018-04-11T14:29:10.742Z,30.12
2018-04-11T14:31:39.022Z,28.94
2018-04-11T14:34:07.400Z,29.74
2018-04-11T14:36:36.451Z,29.40
2018-04-11T14:39:05.902Z,29.74
2018-04-11T14:41:35.936Z,29.99
2018-04-11T14:44:05.015Z,28.82
2018-04-11T14:46:33.341Z,27.81
2018-04-11T14:49:01.618Z,27.68
2018-04-11T14:51:29.965Z,27.72
2018-04-11T14:53:58.206Z,27.68
2018-04-11T14:56:26.549Z,26.92
2018-04-11T14:58:54.814Z,25.93
2018-04-11T15:01:23.177Z,26.28
2018-04-11T15:03:51.431Z,26.68
2018-04-11T15:06:19.739Z,27.59
2018-04-11T15:08:48.025Z,29.00
2018-04-11T15:11:16.305Z,29.96
2018-04-11T15:13:44.566Z,29.06
2018-04-11T15:16:12.865Z,28.44
2018-04-11T15:18:41.135Z,27.56
2018-04-11T15:21:09.510Z,27.49
2018-04-11T15:23:37.891Z,26.78
2018-04-11T15:26:06.164Z,27.54
2018-04-11T15:28:34.554Z,27.52
2018-04-11T15:31:05.080Z,27.26
2018-04-11T15:33:33.409Z,27.22
2018-04-11T15:36:01.804Z,25.73
2018-04-11T15:38:30.124Z,26.20
2018-04-11T15:40:58.466Z,25.53
2018-04-11T15:43:26.903Z,25.09
2018-04-11T15:45:55.360Z,25.41
2018-04-11T15:48:23.668Z,26.54
2018-04-11T15:50:51.951Z,27.45
2018-04-11T15:53:20.259Z,27.18
2018-04-11T15:55:48.530Z,26.78
2018-04-11T15:58:16.949Z,26.22
2018-04-11T16:00:45.265Z,25.76
2018-04-11T16:03:13.554Z,26.89
2018-04-11T16:05:41.838Z,28.71
2018-04-11T16:08:10.164Z,27.85
2018-04-11T16:10:38.403Z,27.32
2018-04-11T16:13:06.828Z,27.43
2018-04-11T16:15:35.049Z,28.67
2018-04-11T16:18:03.400Z,28.86
2018-04-11T16:20:31.662Z,29.53
2018-04-11T16:22:59.932Z,28.63
2018-04-11T16:25:28.274Z,28.52
2018-04-11T16:27:56.571Z,28.16
2018-04-11T16:30:24.975Z,28.08
2018-04-11T16:32:53.267Z,27.75
2018-04-11T16:35:21.551Z,27.47
2018-04-11T16:37:49.831Z,28.71
2018-04-11T16:40:18.106Z,30.25
2018-04-11T16:42:46.416Z,29.09
2018-04-11T16:45:14.711Z,27.64
2018-04-11T16:47:42.983Z,27.33
2018-04-11T16:50:11.288Z,28.48
2018-04-11T16:52:39.587Z,29.04
2018-04-11T16:55:07.888Z,28.90
2018-04-11T16:57:36.205Z,29.60
2018-04-11T17:00:04.902Z,29.72
2018-04-11T17:02:33.151Z,30.29
2018-04-11T17:05:01.594Z,31.03
2018-04-11T17:07:30.898Z,31.28
2018-04-11T17:09:59.189Z,31.55
2018-04-11T17:12:27.473Z,32.06
2018-04-11T17:14:55.773Z,32.31
2018-04-11T17:17:24.092Z,32.25
2018-04-11T17:19:52.356Z,33.18
2018-04-11T17:22:32.343Z,33.93
2018-04-11T17:25:12.303Z,34.42
2018-04-11T17:27:52.345Z,35.02
2018-04-11T17:30:32.483Z,36.13
2018-04-11T17:33:00.777Z,37.08
2018-04-11T17:35:29.782Z,37.43
2018-04-11T17:37:58.080Z,37.69
2018-04-11T17:40:26.348Z,37.71
2018-04-11T17:42:54.990Z,38.03
2018-04-11T17:45:23.310Z,38.25
2018-04-11T17:47:51.569Z,38.44
2018-04-11T17:50:19.844Z,39.34
2018-04-11T17:52:48.167Z,40.35
2018-04-11T17:55:16.453Z,41.49
2018-04-11T17:57:44.781Z,41.37
2018-04-11T18:00:13.057Z,42.04
2018-04-11T18:02:41.387Z,42.35
2018-04-11T18:05:09.688Z,42.32
2018-04-11T18:07:38.000Z,42.75
2018-04-11T18:10:06.343Z,42.97
2018-04-11T18:12:34.641Z,43.31
2018-04-11T18:15:02.908Z,43.54
2018-04-11T18:17:31.179Z,43.70
2018-04-11T18:19:59.487Z,44.30
2018-04-11T18:22:27.763Z,45.03
2018-04-11T18:24:56.103Z,45.30
2018-04-11T18:27:24.357Z,45.53
2018-04-11T18:29:52.668Z,45.21
2018-04-11T18:32:20.953Z,45.22
2018-04-11T18:34:49.276Z,45.10
2018-04-11T18:37:17.579Z,45.71
2018-04-11T18:39:46.703Z,45.63
2018-04-11T18:42:14.987Z,45.80
2018-04-11T18:44:43.387Z,46.25
2018-04-11T18:47:11.942Z,47.37
2018-04-11T18:49:40.327Z,47.55
2018-04-11T18:52:08.606Z,47.41
2018-04-11T18:54:36.899Z,47.42
2018-04-11T18:57:05.413Z,47.57
2018-04-11T18:59:33.722Z,47.84
2018-04-11T19:02:02.035Z,48.01
2018-04-11T19:04:30.298Z,48.21
2018-04-11T19:06:58.627Z,48.46
2018-04-11T19:09:26.932Z,48.68
2018-04-11T19:11:55.270Z,48.42
2018-04-11T19:14:23.587Z,48.79
2018-04-11T19:16:51.968Z,48.97
2018-04-11T19:19:20.253Z,49.64
2018-04-11T19:21:48.534Z,49.68
2018-04-11T19:24:16.838Z,49.86
2018-04-11T19:26:45.142Z,49.64
2018-04-11T19:29:13.415Z,49.93
2018-04-11T19:31:41.739Z,50.29
2018-04-11T19:34:10.012Z,50.48
2018-04-11T19:36:38.296Z,56.19
2018-04-11T19:39:06.585Z,57.66
2018-04-11T19:41:34.900Z,54.63
2018-04-11T19:44:03.208Z,55.90
2018-04-11T19:46:31.503Z,56.26
2018-04-11T19:48:59.842Z,53.78
2018-04-11T19:51:28.082Z,51.91
2018-04-11T19:53:56.383Z,49.82
2018-04-11T19:56:24.660Z,49.18
2018-04-11T19:58:53.032Z,48.77
2018-04-11T20:01:21.281Z,48.19
2018-04-11T20:03:49.598Z,48.26
2018-04-11T20:06:17.870Z,47.85
2018-04-11T20:08:46.158Z,45.52
2018-04-11T20:11:14.494Z,47.21
2018-04-11T20:13:42.751Z,49.25
2018-04-11T20:16:11.055Z,50.98
2018-04-11T20:18:39.400Z,51.52
2018-04-11T20:21:07.733Z,52.31
2018-04-11T20:23:36.082Z,52.41
2018-04-11T20:26:05.215Z,52.96
2018-04-11T20:28:33.535Z,52.98
2018-04-11T20:31:01.818Z,53.49
2018-04-11T20:33:30.148Z,53.95
2018-04-11T20:35:58.422Z,54.19
2018-04-11T20:38:26.673Z,54.25
2018-04-11T20:40:54.937Z,54.49
2018-04-11T20:43:23.556Z,55.06
2018-04-11T20:45:51.848Z,55.21
2018-04-11T20:48:20.120Z,55.77
2018-04-11T20:50:49.219Z,56.21
2018-04-11T20:53:18.297Z,56.69
2018-04-11T20:55:46.596Z,56.86
2018-04-11T20:58:14.920Z,56.79
2018-04-11T21:00:43.247Z,56.89
2018-04-11T21:03:11.557Z,56.70
2018-04-11T21:05:39.842Z,57.29
2018-04-11T21:08:08.123Z,57.45
2018-04-11T21:10:36.431Z,57.64
2018-04-11T21:13:04.837Z,57.66
2018-04-11T21:15:33.148Z,58.23
2018-04-11T21:18:01.441Z,58.25
2018-04-11T21:20:29.730Z,58.12
2018-04-11T21:22:57.997Z,58.04
2018-04-11T21:25:26.335Z,57.91
2018-04-11T21:27:54.631Z,58.06
2018-04-11T21:30:22.923Z,58.19
2018-04-11T21:32:51.218Z,58.61
2018-04-11T21:35:19.471Z,58.67
2018-04-11T21:37:47.774Z,58.74
2018-04-11T21:40:16.030Z,58.43
2018-04-11T21:42:44.364Z,58.75
2018-04-11T21:45:12.602Z,58.73
2018-04-11T21:47:40.874Z,58.81
2018-04-11T21:50:09.135Z,58.88
2018-04-11T21:52:37.415Z,58.74
2018-04-11T21:55:05.675Z,58.96
2018-04-11T21:57:33.958Z,59.40
2018-04-11T22:00:02.225Z,59.64
2018-04-11T22:02:30.511Z,59.66
2018-04-11T22:04:58.783Z,59.84
2018-04-11T22:07:27.092Z,59.52
2018-04-11T22:09:55.342Z,59.69
2018-04-11T22:12:23.749Z,59.56
2018-04-11T22:14:51.995Z,59.44
2018-04-11T22:17:20.308Z,59.48
2018-04-11T22:19:48.550Z,60.24
2018-04-11T22:22:16.844Z,60.30
2018-04-11T22:24:46.048Z,60.52
2018-04-11T22:27:14.307Z,61.01
2018-04-11T22:29:42.602Z,61.29
2018-04-11T22:32:10.855Z,61.17
2018-04-11T22:34:39.878Z,61.13
2018-04-11T22:37:08.126Z,61.65
2018-04-11T22:39:36.442Z,61.43
2018-04-11T22:42:04.756Z,60.88
2018-04-11T22:44:33.064Z,61.12
2018-04-11T22:47:01.328Z,61.56
2018-04-11T22:49:29.610Z,62.07
2018-04-11T22:51:57.882Z,62.02
2018-04-11T22:54:26.195Z,61.92
2018-04-11T22:56:54.487Z,62.12
2018-04-11T22:59:22.806Z,62.91
2018-04-11T23:01:51.707Z,62.92
2018-04-11T23:04:20.093Z,62.64
2018-04-11T23:06:48.395Z,62.44
2018-04-11T23:09:16.655Z,62.55
2018-04-11T23:11:44.925Z,62.42
2018-04-11T23:14:13.219Z,62.09
2018-04-11T23:16:41.505Z,62.16
2018-04-11T23:19:09.783Z,62.19
2018-04-11T23:21:38.125Z,62.08
2018-04-11T23:24:06.426Z,62.12
2018-04-11T23:26:34.754Z,62.07
2018-04-11T23:29:03.138Z,62.69
2018-04-11T23:31:31.427Z,63.31
2018-04-11T23:33:59.719Z,63.75
2018-04-11T23:36:28.011Z,63.43
2018-04-11T23:38:56.267Z,63.29
2018-04-11T23:41:24.562Z,63.27
2018-04-11T23:43:52.855Z,63.62
2018-04-11T23:46:21.166Z,63.28
2018-04-11T23:48:49.586Z,63.24
2018-04-11T23:51:17.888Z,62.94
2018-04-11T23:53:46.162Z,63.02
2018-04-11T23:56:14.466Z,63.12
2018-04-11T23:58:42.752Z,63.47
